createdAt,value
2023-04-11T00:02:09.829Z,36.01
2023-04-11T00:07:11.736Z,36.05
2023-04-11T00:12:13.635Z,36.17
2023-04-11T00:17:17.717Z,36.48
2023-04-11T00:22:19.579Z,36.49
2023-04-11T00:27:22.059Z,36.50
2023-04-11T00:32:25.086Z,36.85
2023-04-11T00:37:26.959Z,36.94
2023-04-11T00:42:29.171Z,36.84
2023-04-11T00:47:33.751Z,37.02
2023-04-11T00:52:38.533Z,37.06
2023-04-11T00:57:42.033Z,37.05
2023-04-11T01:02:44.874Z,36.92
2023-04-11T01:07:50.683Z,36.99
2023-04-11T01:12:52.978Z,36.96
2023-04-11T01:17:55.790Z,36.51
2023-04-11T01:22:58.930Z,36.30
2023-04-11T01:28:01.039Z,36.08
2023-04-11T01:33:03.345Z,36.08
2023-04-11T01:38:05.741Z,36.21
2023-04-11T01:43:09.432Z,36.00
2023-04-11T01:48:11.575Z,36.15
2023-04-11T01:53:13.831Z,35.77
2023-04-11T01:58:16.018Z,35.97
2023-04-11T02:03:18.930Z,35.84
2023-04-11T02:08:20.981Z,35.82
2023-04-11T02:13:22.927Z,35.61
2023-04-11T02:18:24.812Z,35.31
2023-04-11T02:23:26.661Z,35.36
2023-04-11T02:28:29.273Z,35.25
2023-04-11T02:33:31.222Z,35.63
2023-04-11T02:38:33.138Z,35.25
2023-04-11T02:43:34.990Z,35.39
2023-04-11T02:48:36.833Z,35.53
2023-04-11T02:53:39.809Z,35.80
2023-04-11T02:58:42.181Z,35.67
2023-04-11T03:03:48.634Z,36.15
2023-04-11T03:08:52.638Z,36.18
2023-04-11T03:13:54.864Z,36.07
2023-04-11T03:18:58.666Z,36.46
2023-04-11T03:24:00.630Z,36.43
2023-04-11T03:29:02.503Z,36.12
2023-04-11T03:34:10.546Z,36.08
2023-04-11T03:39:15.220Z,36.11
2023-04-11T03:44:17.238Z,36.15
2023-04-11T03:49:20.836Z,36.32
2023-04-11T03:54:28.321Z,36.38
2023-04-11T03:59:31.011Z,36.25
2023-04-11T04:04:38.648Z,37.02
2023-04-11T04:09:58.954Z,37.16
2023-04-11T04:15:02.455Z,37.16
2023-04-11T04:20:06.494Z,37.35
2023-04-11T04:25:12.824Z,37.35
2023-04-11T04:30:15.883Z,37.93
2023-04-11T04:35:33.005Z,39.39
2023-04-11T04:40:39.966Z,40.41
2023-04-11T04:45:42.759Z,41.47
2023-04-11T04:50:46.091Z,42.63
2023-04-11T04:55:48.565Z,43.59
2023-04-11T05:00:56.289Z,44.79
2023-04-11T05:06:03.707Z,45.43
2023-04-11T05:11:06.826Z,46.00
2023-04-11T05:16:10.020Z,46.84
2023-04-11T05:21:13.875Z,47.13
2023-04-11T05:26:18.432Z,47.28
2023-04-11T05:31:20.984Z,47.19
2023-04-11T05:36:23.720Z,47.15
2023-04-11T05:41:26.923Z,47.66
2023-04-11T05:46:30.108Z,48.04
2023-04-11T05:51:31.992Z,48.40
2023-04-11T05:56:35.327Z,48.67
2023-04-11T06:01:39.912Z,48.70
2023-04-11T06:06:43.029Z,48.81
2023-04-11T06:11:45.025Z,49.02
2023-04-11T06:16:46.907Z,49.71
2023-04-11T06:21:48.730Z,50.31
2023-04-11T06:26:50.538Z,50.07
2023-04-11T06:31:52.471Z,50.18
2023-04-11T06:36:54.317Z,50.48
2023-04-11T06:41:56.686Z,50.46
2023-04-11T06:47:01.587Z,50.68
2023-04-11T06:52:03.760Z,51.30
2023-04-11T06:57:05.588Z,52.03
2023-04-11T07:02:08.002Z,53.61
2023-04-11T07:07:09.926Z,55.07
2023-04-11T07:12:11.736Z,55.92
2023-04-11T07:17:13.594Z,56.42
2023-04-11T07:22:15.678Z,56.48
2023-04-11T07:27:17.790Z,55.95
2023-04-11T07:32:19.990Z,55.90
2023-04-11T07:37:21.944Z,55.66
2023-04-11T07:42:23.765Z,55.76
2023-04-11T07:47:25.600Z,55.91
2023-04-11T07:52:27.459Z,56.37
2023-04-11T07:57:29.907Z,56.75
2023-04-11T08:02:33.434Z,56.52
2023-04-11T08:07:35.677Z,56.71
2023-04-11T08:12:37.644Z,56.59
2023-04-11T08:17:41.183Z,56.50
2023-04-11T08:22:46.957Z,56.17
2023-04-11T08:27:49.888Z,55.76
2023-04-11T08:32:51.759Z,55.84
2023-04-11T08:37:53.904Z,55.54
2023-04-11T08:43:00.099Z,55.40
2023-04-11T08:48:01.916Z,55.12
2023-04-11T08:53:04.047Z,54.80
2023-04-11T08:58:06.717Z,54.50
2023-04-11T09:03:10.615Z,53.84
2023-04-11T09:08:14.120Z,53.60
2023-04-11T09:13:24.594Z,53.36
2023-04-11T09:18:33.028Z,53.12
2023-04-11T09:23:35.622Z,53.38
2023-04-11T09:28:52.416Z,53.38
2023-04-11T09:33:59.651Z,53.89
2023-04-11T09:39:17.224Z,53.63
2023-04-11T09:44:19.052Z,53.39
2023-04-11T09:49:20.944Z,53.01
2023-04-11T09:54:23.169Z,52.89
2023-04-11T09:59:26.842Z,52.34
2023-04-11T10:04:28.800Z,52.18
2023-04-11T10:09:32.551Z,51.40
2023-04-11T10:14:37.448Z,51.11
2023-04-11T10:19:39.421Z,50.47
2023-04-11T10:25:19.235Z,49.67
2023-04-11T10:30:41.329Z,49.60
2023-04-11T10:36:05.658Z,48.52
2023-04-11T10:41:25.529Z,47.62
2023-04-11T10:46:28.437Z,46.71
2023-04-11T10:51:32.506Z,45.39
2023-04-11T10:56:42.410Z,44.29
2023-04-11T11:01:54.999Z,42.16
2023-04-11T11:06:58.412Z,41.22
2023-04-11T11:12:10.691Z,41.31
2023-04-11T11:17:13.961Z,42.76
2023-04-11T11:22:17.724Z,43.45
2023-04-11T11:27:20.960Z,43.50
2023-04-11T11:32:30.191Z,43.19
2023-04-11T11:37:32.125Z,42.31
2023-04-11T11:42:33.997Z,43.00
2023-04-11T11:47:45.995Z,42.92
2023-04-11T11:52:48.903Z,43.78
2023-04-11T11:57:50.995Z,45.18
2023-04-11T12:02:54.413Z,45.50
2023-04-11T12:07:58.698Z,46.01
2023-04-11T12:13:00.654Z,45.92
2023-04-11T12:18:05.949Z,47.08
2023-04-11T12:23:08.064Z,48.13
2023-04-11T12:28:10.927Z,48.63
2023-04-11T12:33:12.895Z,48.71
2023-04-11T12:38:17.507Z,48.05
2023-04-11T12:43:20.045Z,48.66
2023-04-11T12:48:21.895Z,48.61
2023-04-11T12:53:24.739Z,48.65
2023-04-11T12:58:29.131Z,48.34
2023-04-11T13:03:31.526Z,47.07
2023-04-11T13:08:34.215Z,45.21
2023-04-11T13:13:37.033Z,44.18
2023-04-11T13:18:39.113Z,43.43
2023-04-11T13:23:40.945Z,42.53
2023-04-11T13:28:42.787Z,41.80
2023-04-11T13:33:45.916Z,41.93
2023-04-11T13:38:49.117Z,41.89
2023-04-11T13:43:53.893Z,41.59
2023-04-11T13:48:56.171Z,41.91
2023-04-11T13:53:58.310Z,41.30
2023-04-11T13:59:00.603Z,42.06
2023-04-11T14:04:02.592Z,41.96
2023-04-11T14:09:07.820Z,42.06
2023-04-11T14:14:09.632Z,42.10
2023-04-11T14:19:11.898Z,40.97
2023-04-11T14:24:13.918Z,40.69
2023-04-11T14:29:15.948Z,40.84
2023-04-11T14:34:18.693Z,40.17
2023-04-11T14:39:20.602Z,39.12
2023-04-11T14:44:22.429Z,39.08
2023-04-11T14:49:24.234Z,39.46
2023-04-11T14:54:26.158Z,39.39
2023-04-11T14:59:28.002Z,39.22
2023-04-11T15:04:29.983Z,38.84
2023-04-11T15:09:31.914Z,38.87
2023-04-11T15:14:33.712Z,38.12
2023-04-11T15:19:35.691Z,38.93
2023-04-11T15:24:37.509Z,39.73
2023-04-11T15:29:39.323Z,40.46
2023-04-11T15:34:41.713Z,41.09
2023-04-11T15:39:43.537Z,41.48
2023-04-11T15:44:45.813Z,42.06
2023-04-11T15:49:47.720Z,42.13
2023-04-11T15:54:49.532Z,42.20
2023-04-11T15:59:52.982Z,42.49
2023-04-11T16:04:56.066Z,42.63
2023-04-11T16:09:57.983Z,43.24
2023-04-11T16:14:59.952Z,43.26
2023-04-11T16:20:02.414Z,43.69
2023-04-11T16:25:05.436Z,42.74
2023-04-11T16:30:07.899Z,42.33
2023-04-11T16:35:09.978Z,41.92
2023-04-11T16:40:12.061Z,41.45
2023-04-11T16:45:14.037Z,41.43
2023-04-11T16:50:15.977Z,41.31
2023-04-11T16:55:18.142Z,41.48
2023-04-11T17:00:20.774Z,41.41
2023-04-11T17:05:24.041Z,41.51
2023-04-11T17:10:26.171Z,42.14
2023-04-11T17:15:28.115Z,42.14
2023-04-11T17:20:29.980Z,42.59
2023-04-11T17:25:32.112Z,42.70
2023-04-11T17:30:34.391Z,42.61
2023-04-11T17:35:36.295Z,42.64
2023-04-11T17:40:41.568Z,42.84
2023-04-11T17:45:43.925Z,42.78
2023-04-11T17:50:46.435Z,42.88
2023-04-11T17:55:49.853Z,42.53
2023-04-11T18:00:56.297Z,42.26
2023-04-11T18:05:59.881Z,42.42
2023-04-11T18:11:01.791Z,42.49
2023-04-11T18:16:04.339Z,42.20
2023-04-11T18:21:07.872Z,42.10
2023-04-11T18:26:09.937Z,42.23
2023-04-11T18:31:12.098Z,42.67
2023-04-11T18:36:14.027Z,43.26
2023-04-11T18:41:17.596Z,43.28
2023-04-11T18:46:20.586Z,43.56
2023-04-11T18:51:22.464Z,43.24
2023-04-11T18:56:24.391Z,43.05
2023-04-11T19:01:26.250Z,43.95
2023-04-11T19:06:28.108Z,44.25
2023-04-11T19:11:30.050Z,44.98
2023-04-11T19:16:32.139Z,44.78
2023-04-11T19:21:34.133Z,45.68
2023-04-11T19:26:36.002Z,46.23
2023-04-11T19:31:37.892Z,45.75
2023-04-11T19:36:39.778Z,46.63
2023-04-11T19:41:45.004Z,46.88
2023-04-11T19:46:46.845Z,47.00
2023-04-11T19:51:48.810Z,47.24
2023-04-11T19:56:54.137Z,47.03
2023-04-11T20:01:56.466Z,46.23
2023-04-11T20:07:01.041Z,46.11
2023-04-11T20:12:05.683Z,47.79
2023-04-11T20:17:08.855Z,47.93
2023-04-11T20:22:13.722Z,48.06
2023-04-11T20:27:16.493Z,48.49
2023-04-11T20:32:19.024Z,48.30
2023-04-11T20:37:22.515Z,47.96
2023-04-11T20:42:26.158Z,47.84
2023-04-11T20:47:28.526Z,48.67
2023-04-11T20:52:32.903Z,48.29
2023-04-11T20:57:42.521Z,49.01
2023-04-11T21:02:47.177Z,49.26
2023-04-11T21:07:49.378Z,49.01
2023-04-11T21:12:51.880Z,49.44
2023-04-11T21:17:53.966Z,48.99
2023-04-11T21:22:56.023Z,48.63
2023-04-11T21:27:57.879Z,48.31
2023-04-11T21:32:59.776Z,48.31
2023-04-11T21:38:01.650Z,49.05
2023-04-11T21:43:03.749Z,48.86
2023-04-11T21:48:05.895Z,48.98
2023-04-11T21:53:07.823Z,48.43
2023-04-11T21:58:15.831Z,48.46
2023-04-11T22:03:31.745Z,48.87
2023-04-11T22:08:33.868Z,47.91
2023-04-11T22:13:39.797Z,48.37
2023-04-11T22:18:47.488Z,47.75
2023-04-11T22:23:54.874Z,47.48
2023-04-11T22:29:01.396Z,47.80
2023-04-11T22:34:05.397Z,47.81
2023-04-11T22:39:08.265Z,47.91
2023-04-11T22:44:10.124Z,48.04
2023-04-11T22:49:11.944Z,48.18
2023-04-11T22:54:15.684Z,48.11
2023-04-11T22:59:17.494Z,47.84
2023-04-11T23:04:22.388Z,48.11
2023-04-11T23:09:24.293Z,47.66
2023-04-11T23:14:31.290Z,47.75
2023-04-11T23:19:34.193Z,47.88
2023-04-11T23:24:36.272Z,47.70
2023-04-11T23:29:38.568Z,48.16
2023-04-11T23:34:41.122Z,48.34
2023-04-11T23:39:43.310Z,48.33
2023-04-11T23:44:45.124Z,47.91
2023-04-11T23:49:47.003Z,48.28
2023-04-11T23:54:49.960Z,48.07
2023-04-11T23:59:51.815Z,48.81
